Terminal Aerodrome Forecast
Issued by NWS Cleveland, OH

Home | Current Version | Previous Version | Text Only | Print | Product List | Glossary On
Versions: 1 2 3 4 5 6 7 8 9 10 11 12 13 14 15 16 17 18 19 20 21 22 23 24 25 26
000
FTUS41 KCLE 062300
TAFCAK
TAF
KCAK 062330Z 0700/0724 33006KT P6SM SKC
     FM070700 00000KT 5SM BR SCT250
     FM071000 00000KT 2SM BR FEW003
      TEMPO 0710/0713 1SM BR
     FM071300 VRB03KT 4SM BR SCT250
     FM071500 VRB03KT P6SM SKC=

USA.gov is the U.S. government's official web portal to all federal, state and local government web resources and services.